sensor_id;sensor_type;location;lat;lon;timestamp;pressure;altitude;pressure_sealevel;temperature;humidity
78064;BME280;67429;51.596;-3.264;2023-04-23T00:01:55;97915.23;;;10.03;54.21
78064;BME280;67429;51.596;-3.264;2023-04-23T00:04:17;97916.20;;;9.79;54.48
78064;BME280;67429;51.596;-3.264;2023-04-23T00:06:43;97917.51;;;9.37;55.55
78064;BME280;67429;51.596;-3.264;2023-04-23T00:09:09;97915.09;;;9.68;55.29
78064;BME280;67429;51.596;-3.264;2023-04-23T00:11:34;97918.43;;;9.59;55.16
78064;BME280;67429;51.596;-3.264;2023-04-23T00:13:59;97918.07;;;9.97;54.97
78064;BME280;67429;51.596;-3.264;2023-04-23T00:16:25;97911.66;;;9.74;54.72
78064;BME280;67429;51.596;-3.264;2023-04-23T00:18:50;97913.33;;;10.21;53.89
78064;BME280;67429;51.596;-3.264;2023-04-23T00:21:15;97912.84;;;10.10;53.33
78064;BME280;67429;51.596;-3.264;2023-04-23T00:23:41;97906.76;;;10.06;54.11
78064;BME280;67429;51.596;-3.264;2023-04-23T00:26:07;97907.67;;;10.25;53.57
78064;BME280;67429;51.596;-3.264;2023-04-23T00:28:32;97906.52;;;10.14;53.91
78064;BME280;67429;51.596;-3.264;2023-04-23T00:30:58;97904.39;;;9.39;55.31
78064;BME280;67429;51.596;-3.264;2023-04-23T00:33:24;97909.74;;;9.82;54.57
78064;BME280;67429;51.596;-3.264;2023-04-23T00:35:49;97912.16;;;9.87;54.27
78064;BME280;67429;51.596;-3.264;2023-04-23T00:38:15;97910.50;;;9.56;54.57
78064;BME280;67429;51.596;-3.264;2023-04-23T00:40:41;97909.85;;;10.01;54.08
78064;BME280;67429;51.596;-3.264;2023-04-23T00:43:06;97905.18;;;10.04;53.81
78064;BME280;67429;51.596;-3.264;2023-04-23T00:45:32;97907.75;;;9.86;53.85
78064;BME280;67429;51.596;-3.264;2023-04-23T00:47:57;97904.11;;;9.10;56.09
78064;BME280;67429;51.596;-3.264;2023-04-23T00:50:22;97903.49;;;9.25;56.28
78064;BME280;67429;51.596;-3.264;2023-04-23T00:52:47;97903.43;;;9.11;56.11
78064;BME280;67429;51.596;-3.264;2023-04-23T00:55:13;97900.10;;;8.78;56.58
78064;BME280;67429;51.596;-3.264;2023-04-23T00:57:38;97898.61;;;9.22;55.38
78064;BME280;67429;51.596;-3.264;2023-04-23T01:00:05;97891.14;;;9.14;55.13
78064;BME280;67429;51.596;-3.264;2023-04-23T01:02:30;97890.32;;;9.03;56.06
78064;BME280;67429;51.596;-3.264;2023-04-23T01:04:55;97888.64;;;8.56;56.90
78064;BME280;67429;51.596;-3.264;2023-04-23T01:07:21;97882.73;;;8.54;57.38
78064;BME280;67429;51.596;-3.264;2023-04-23T01:09:47;97883.64;;;8.97;56.69
78064;BME280;67429;51.596;-3.264;2023-04-23T01:12:12;97890.29;;;8.32;58.35
78064;BME280;67429;51.596;-3.264;2023-04-23T01:14:37;97893.38;;;8.77;56.92
78064;BME280;67429;51.596;-3.264;2023-04-23T01:17:02;97894.50;;;8.94;56.35
78064;BME280;67429;51.596;-3.264;2023-04-23T01:19:28;97896.91;;;8.71;57.07
78064;BME280;67429;51.596;-3.264;2023-04-23T01:21:53;97905.08;;;9.32;56.27
78064;BME280;67429;51.596;-3.264;2023-04-23T01:24:19;97909.01;;;9.26;55.26
78064;BME280;67429;51.596;-3.264;2023-04-23T01:26:44;97906.80;;;9.94;54.01
78064;BME280;67429;51.596;-3.264;2023-04-23T01:29:10;97910.87;;;9.73;53.71
78064;BME280;67429;51.596;-3.264;2023-04-23T01:31:36;97910.62;;;9.58;53.81
78064;BME280;67429;51.596;-3.264;2023-04-23T01:34:00;97911.47;;;8.96;54.74
78064;BME280;67429;51.596;-3.264;2023-04-23T01:36:26;97908.26;;;8.60;56.56
78064;BME280;67429;51.596;-3.264;2023-04-23T01:38:52;97906.80;;;8.55;56.91
78064;BME280;67429;51.596;-3.264;2023-04-23T01:41:17;97906.59;;;9.03;55.04
78064;BME280;67429;51.596;-3.264;2023-04-23T01:43:42;97912.44;;;8.98;55.78
78064;BME280;67429;51.596;-3.264;2023-04-23T01:46:07;97915.25;;;8.98;55.51
78064;BME280;67429;51.596;-3.264;2023-04-23T01:48:33;97918.51;;;9.04;55.70
78064;BME280;67429;51.596;-3.264;2023-04-23T01:50:59;97921.94;;;9.15;55.10
78064;BME280;67429;51.596;-3.264;2023-04-23T01:53:24;97919.90;;;9.23;54.70
78064;BME280;67429;51.596;-3.264;2023-04-23T01:55:50;97917.41;;;9.53;54.29
78064;BME280;67429;51.596;-3.264;2023-04-23T01:58:14;97914.59;;;9.29;54.90
78064;BME280;67429;51.596;-3.264;2023-04-23T02:00:40;97910.48;;;9.74;53.68
78064;BME280;67429;51.596;-3.264;2023-04-23T02:03:06;97914.75;;;9.49;53.71
78064;BME280;67429;51.596;-3.264;2023-04-23T02:05:34;97919.41;;;9.11;54.56
78064;BME280;67429;51.596;-3.264;2023-04-23T02:07:57;97919.06;;;9.75;53.50
78064;BME280;67429;51.596;-3.264;2023-04-23T02:10:22;97919.65;;;9.56;53.80
78064;BME280;67429;51.596;-3.264;2023-04-23T02:12:48;97920.93;;;9.54;53.62
78064;BME280;67429;51.596;-3.264;2023-04-23T02:15:14;97922.84;;;9.08;54.12
78064;BME280;67429;51.596;-3.264;2023-04-23T02:17:38;97920.36;;;9.29;54.08
78064;BME280;67429;51.596;-3.264;2023-04-23T02:20:05;97919.66;;;9.22;54.73
78064;BME280;67429;51.596;-3.264;2023-04-23T02:22:30;97916.81;;;8.71;54.64
78064;BME280;67429;51.596;-3.264;2023-04-23T02:24:55;97914.60;;;8.89;55.46
78064;BME280;67429;51.596;-3.264;2023-04-23T02:27:21;97912.88;;;8.61;55.70
78064;BME280;67429;51.596;-3.264;2023-04-23T02:29:46;97912.94;;;9.10;55.14
78064;BME280;67429;51.596;-3.264;2023-04-23T02:32:11;97914.10;;;9.29;54.64
78064;BME280;67429;51.596;-3.264;2023-04-23T02:34:36;97919.45;;;9.31;54.32
78064;BME280;67429;51.596;-3.264;2023-04-23T02:37:02;97919.70;;;9.06;54.01
78064;BME280;67429;51.596;-3.264;2023-04-23T02:39:27;97921.05;;;9.07;54.25
78064;BME280;67429;51.596;-3.264;2023-04-23T02:41:52;97925.05;;;9.40;53.65
78064;BME280;67429;51.596;-3.264;2023-04-23T02:44:18;97923.26;;;9.45;53.77
78064;BME280;67429;51.596;-3.264;2023-04-23T02:46:43;97924.51;;;9.54;53.16
78064;BME280;67429;51.596;-3.264;2023-04-23T02:49:08;97918.93;;;9.57;52.95
78064;BME280;67429;51.596;-3.264;2023-04-23T02:51:33;97916.71;;;9.19;53.13
78064;BME280;67429;51.596;-3.264;2023-04-23T02:53:59;97912.44;;;9.21;53.92
78064;BME280;67429;51.596;-3.264;2023-04-23T02:56:25;97913.34;;;9.10;54.06
78064;BME280;67429;51.596;-3.264;2023-04-23T02:58:51;97919.34;;;8.98;54.38
78064;BME280;67429;51.596;-3.264;2023-04-23T03:01:16;97925.24;;;9.26;53.62
78064;BME280;67429;51.596;-3.264;2023-04-23T03:03:42;97923.51;;;9.58;53.29
78064;BME280;67429;51.596;-3.264;2023-04-23T03:06:07;97923.30;;;9.39;52.85
78064;BME280;67429;51.596;-3.264;2023-04-23T03:08:32;97924.25;;;9.68;52.87
78064;BME280;67429;51.596;-3.264;2023-04-23T03:10:58;97923.31;;;9.82;52.05
78064;BME280;67429;51.596;-3.264;2023-04-23T03:13:24;97920.11;;;9.57;53.34
78064;BME280;67429;51.596;-3.264;2023-04-23T03:15:49;97916.58;;;9.79;52.78
78064;BME280;67429;51.596;-3.264;2023-04-23T03:18:14;97916.52;;;9.73;52.35
78064;BME280;67429;51.596;-3.264;2023-04-23T03:20:40;97917.17;;;9.86;51.97
78064;BME280;67429;51.596;-3.264;2023-04-23T03:23:05;97917.81;;;9.83;52.19
78064;BME280;67429;51.596;-3.264;2023-04-23T03:25:31;97917.38;;;9.64;52.63
78064;BME280;67429;51.596;-3.264;2023-04-23T03:27:56;97916.72;;;9.80;52.39
78064;BME280;67429;51.596;-3.264;2023-04-23T03:30:21;97917.35;;;9.63;52.56
78064;BME280;67429;51.596;-3.264;2023-04-23T03:32:48;97915.20;;;9.52;53.14
78064;BME280;67429;51.596;-3.264;2023-04-23T03:35:13;97913.98;;;9.04;53.58
78064;BME280;67429;51.596;-3.264;2023-04-23T03:37:38;97918.42;;;9.15;53.63
78064;BME280;67429;51.596;-3.264;2023-04-23T03:40:04;97915.27;;;8.56;54.45
78064;BME280;67429;51.596;-3.264;2023-04-23T03:42:29;97915.40;;;9.04;55.08
78064;BME280;67429;51.596;-3.264;2023-04-23T03:44:54;97914.00;;;8.33;55.41
78064;BME280;67429;51.596;-3.264;2023-04-23T03:47:19;97914.73;;;8.59;54.89
78064;BME280;67429;51.596;-3.264;2023-04-23T03:49:45;97918.69;;;8.64;54.68
78064;BME280;67429;51.596;-3.264;2023-04-23T03:52:10;97918.55;;;8.85;54.24
78064;BME280;67429;51.596;-3.264;2023-04-23T03:54:35;97919.80;;;8.91;53.45
78064;BME280;67429;51.596;-3.264;2023-04-23T03:57:01;97927.49;;;8.95;54.11
78064;BME280;67429;51.596;-3.264;2023-04-23T03:59:27;97931.18;;;8.72;55.38
78064;BME280;67429;51.596;-3.264;2023-04-23T04:01:52;97929.43;;;7.44;57.14
78064;BME280;67429;51.596;-3.264;2023-04-23T04:04:18;97932.74;;;8.30;56.87
78064;BME280;67429;51.596;-3.264;2023-04-23T04:06:43;97932.01;;;8.08;56.63
78064;BME280;67429;51.596;-3.264;2023-04-23T04:09:09;97931.58;;;8.78;55.57
78064;BME280;67429;51.596;-3.264;2023-04-23T04:11:34;97928.09;;;8.63;55.42
78064;BME280;67429;51.596;-3.264;2023-04-23T04:13:59;97920.12;;;9.23;54.37
78064;BME280;67429;51.596;-3.264;2023-04-23T04:16:25;97917.20;;;8.64;53.83
78064;BME280;67429;51.596;-3.264;2023-04-23T04:18:50;97916.36;;;9.24;53.73
78064;BME280;67429;51.596;-3.264;2023-04-23T04:21:15;97914.64;;;8.98;53.43
78064;BME280;67429;51.596;-3.264;2023-04-23T04:23:41;97915.42;;;8.99;53.35
78064;BME280;67429;51.596;-3.264;2023-04-23T04:26:06;97917.10;;;9.28;52.47
78064;BME280;67429;51.596;-3.264;2023-04-23T04:28:31;97917.12;;;8.89;52.90
78064;BME280;67429;51.596;-3.264;2023-04-23T04:30:56;97918.82;;;9.09;53.28
78064;BME280;67429;51.596;-3.264;2023-04-23T04:33:22;97918.74;;;9.11;53.31
78064;BME280;67429;51.596;-3.264;2023-04-23T04:35:48;97921.24;;;9.32;52.02
78064;BME280;67429;51.596;-3.264;2023-04-23T04:38:13;97919.89;;;8.37;54.83
78064;BME280;67429;51.596;-3.264;2023-04-23T04:40:39;97915.45;;;7.49;55.93
78064;BME280;67429;51.596;-3.264;2023-04-23T04:43:04;97909.59;;;7.02;58.13
78064;BME280;67429;51.596;-3.264;2023-04-23T04:45:30;97908.35;;;7.01;57.22
78064;BME280;67429;51.596;-3.264;2023-04-23T04:47:56;97907.48;;;7.58;56.01
78064;BME280;67429;51.596;-3.264;2023-04-23T04:50:21;97908.18;;;8.10;55.13
78064;BME280;67429;51.596;-3.264;2023-04-23T04:52:46;97909.62;;;8.03;55.08
78064;BME280;67429;51.596;-3.264;2023-04-23T04:55:12;97913.48;;;8.05;56.34
78064;BME280;67429;51.596;-3.264;2023-04-23T04:57:38;97916.74;;;6.39;59.21
78064;BME280;67429;51.596;-3.264;2023-04-23T05:02:29;97913.99;;;7.00;58.16
78064;BME280;67429;51.596;-3.264;2023-04-23T05:04:54;97912.15;;;6.88;58.13
78064;BME280;67429;51.596;-3.264;2023-04-23T05:07:20;97909.23;;;6.68;59.85
78064;BME280;67429;51.596;-3.264;2023-04-23T05:09:45;97906.35;;;5.98;62.46
78064;BME280;67429;51.596;-3.264;2023-04-23T05:12:11;97909.28;;;7.23;59.04
78064;BME280;67429;51.596;-3.264;2023-04-23T05:14:36;97906.43;;;7.29;57.39
78064;BME280;67429;51.596;-3.264;2023-04-23T05:17:02;97904.10;;;7.75;56.39
78064;BME280;67429;51.596;-3.264;2023-04-23T05:19:27;97903.23;;;7.28;56.88
78064;BME280;67429;51.596;-3.264;2023-04-23T05:21:52;97906.76;;;7.25;57.33
78064;BME280;67429;51.596;-3.264;2023-04-23T05:24:18;97910.56;;;6.84;57.73
78064;BME280;67429;51.596;-3.264;2023-04-23T05:26:43;97914.34;;;6.33;58.54
78064;BME280;67429;51.596;-3.264;2023-04-23T05:29:09;97915.06;;;7.15;57.14
78064;BME280;67429;51.596;-3.264;2023-04-23T05:31:34;97914.32;;;7.18;56.59
78064;BME280;67429;51.596;-3.264;2023-04-23T05:33:59;97914.94;;;7.29;57.17
78064;BME280;67429;51.596;-3.264;2023-04-23T05:36:25;97908.71;;;7.59;55.51
78064;BME280;67429;51.596;-3.264;2023-04-23T05:38:51;97904.02;;;7.65;55.34
78064;BME280;67429;51.596;-3.264;2023-04-23T05:41:17;97909.86;;;6.82;57.01
78064;BME280;67429;51.596;-3.264;2023-04-23T05:43:42;97905.84;;;7.00;56.80
78064;BME280;67429;51.596;-3.264;2023-04-23T05:46:08;97906.24;;;7.28;55.94
78064;BME280;67429;51.596;-3.264;2023-04-23T05:48:33;97907.35;;;7.53;54.71
78064;BME280;67429;51.596;-3.264;2023-04-23T05:50:58;97906.08;;;7.83;54.06
78064;BME280;67429;51.596;-3.264;2023-04-23T05:53:23;97905.24;;;7.61;54.70
78064;BME280;67429;51.596;-3.264;2023-04-23T05:55:49;97906.73;;;7.39;55.70
78064;BME280;67429;51.596;-3.264;2023-04-23T05:58:14;97907.37;;;6.65;57.55
78064;BME280;67429;51.596;-3.264;2023-04-23T06:00:40;97907.18;;;6.73;58.64
78064;BME280;67429;51.596;-3.264;2023-04-23T06:03:06;97910.93;;;6.76;57.55
78064;BME280;67429;51.596;-3.264;2023-04-23T06:05:31;97911.49;;;7.12;57.30
78064;BME280;67429;51.596;-3.264;2023-04-23T06:07:56;97904.09;;;7.05;57.16
78064;BME280;67429;51.596;-3.264;2023-04-23T06:10:22;97906.69;;;7.26;56.85
78064;BME280;67429;51.596;-3.264;2023-04-23T06:12:47;97906.81;;;7.36;57.20
78064;BME280;67429;51.596;-3.264;2023-04-23T06:15:13;97904.82;;;7.57;56.39
78064;BME280;67429;51.596;-3.264;2023-04-23T06:17:38;97905.62;;;7.99;56.75
78064;BME280;67429;51.596;-3.264;2023-04-23T06:20:05;97906.16;;;8.92;55.90
78064;BME280;67429;51.596;-3.264;2023-04-23T06:22:29;97912.90;;;9.00;54.44
78064;BME280;67429;51.596;-3.264;2023-04-23T06:24:54;97917.54;;;9.54;53.20
78064;BME280;67429;51.596;-3.264;2023-04-23T06:27:20;97921.06;;;8.88;54.15
78064;BME280;67429;51.596;-3.264;2023-04-23T06:29:46;97924.15;;;9.05;54.41
78064;BME280;67429;51.596;-3.264;2023-04-23T06:32:11;97925.01;;;9.16;53.77
78064;BME280;67429;51.596;-3.264;2023-04-23T06:34:37;97922.85;;;9.87;52.63
78064;BME280;67429;51.596;-3.264;2023-04-23T06:37:03;97923.88;;;9.42;52.35
78064;BME280;67429;51.596;-3.264;2023-04-23T06:39:28;97924.67;;;8.58;52.80
78064;BME280;67429;51.596;-3.264;2023-04-23T06:41:53;97926.32;;;8.65;54.14
78064;BME280;67429;51.596;-3.264;2023-04-23T06:44:19;97929.07;;;8.83;54.09
78064;BME280;67429;51.596;-3.264;2023-04-23T06:46:44;97933.29;;;8.64;54.36
78064;BME280;67429;51.596;-3.264;2023-04-23T06:49:09;97929.26;;;9.21;53.71
78064;BME280;67429;51.596;-3.264;2023-04-23T06:51:35;97929.68;;;9.15;53.59
78064;BME280;67429;51.596;-3.264;2023-04-23T06:54:01;97928.65;;;9.31;54.06
78064;BME280;67429;51.596;-3.264;2023-04-23T06:56:26;97930.85;;;8.53;54.58
78064;BME280;67429;51.596;-3.264;2023-04-23T06:58:52;97931.66;;;7.96;56.17
78064;BME280;67429;51.596;-3.264;2023-04-23T07:01:16;97933.99;;;8.07;56.28
78064;BME280;67429;51.596;-3.264;2023-04-23T07:03:42;97935.99;;;8.36;55.86
78064;BME280;67429;51.596;-3.264;2023-04-23T07:06:07;97936.32;;;8.58;54.92
78064;BME280;67429;51.596;-3.264;2023-04-23T07:08:32;97934.59;;;7.53;57.37
78064;BME280;67429;51.596;-3.264;2023-04-23T07:10:58;97935.54;;;8.27;57.26
78064;BME280;67429;51.596;-3.264;2023-04-23T07:13:24;97931.21;;;8.56;55.80
78064;BME280;67429;51.596;-3.264;2023-04-23T07:15:49;97928.72;;;7.61;57.31
78064;BME280;67429;51.596;-3.264;2023-04-23T07:18:14;97931.41;;;8.11;57.93
78064;BME280;67429;51.596;-3.264;2023-04-23T07:20:40;97931.65;;;8.15;56.39
78064;BME280;67429;51.596;-3.264;2023-04-23T07:23:05;97930.07;;;8.51;56.57
78064;BME280;67429;51.596;-3.264;2023-04-23T07:25:30;97926.55;;;8.68;54.82
78064;BME280;67429;51.596;-3.264;2023-04-23T07:27:56;97930.93;;;8.54;54.96
78064;BME280;67429;51.596;-3.264;2023-04-23T07:30:23;97930.12;;;8.80;54.40
78064;BME280;67429;51.596;-3.264;2023-04-23T07:32:47;97937.06;;;8.25;56.66
78064;BME280;67429;51.596;-3.264;2023-04-23T07:35:12;97936.90;;;9.58;54.27
78064;BME280;67429;51.596;-3.264;2023-04-23T07:37:37;97938.99;;;10.20;52.46
78064;BME280;67429;51.596;-3.264;2023-04-23T07:40:04;97939.94;;;9.73;51.71
78064;BME280;67429;51.596;-3.264;2023-04-23T07:42:29;97937.34;;;9.48;53.19
78064;BME280;67429;51.596;-3.264;2023-04-23T07:44:54;97937.81;;;10.03;51.71
78064;BME280;67429;51.596;-3.264;2023-04-23T07:47:19;97939.40;;;10.42;52.25
78064;BME280;67429;51.596;-3.264;2023-04-23T07:49:45;97941.77;;;9.88;52.23
78064;BME280;67429;51.596;-3.264;2023-04-23T07:52:10;97948.49;;;10.85;51.18
78064;BME280;67429;51.596;-3.264;2023-04-23T07:54:35;97947.49;;;10.97;49.76
78064;BME280;67429;51.596;-3.264;2023-04-23T07:57:01;97947.43;;;11.82;48.10
78064;BME280;67429;51.596;-3.264;2023-04-23T07:59:27;97949.34;;;11.61;47.99
78064;BME280;67429;51.596;-3.264;2023-04-23T08:01:51;97950.91;;;12.49;46.99
78064;BME280;67429;51.596;-3.264;2023-04-23T08:04:17;97952.53;;;12.22;47.71
78064;BME280;67429;51.596;-3.264;2023-04-23T08:06:42;97953.53;;;12.58;46.29
78064;BME280;67429;51.596;-3.264;2023-04-23T08:09:07;97952.30;;;12.57;45.08
78064;BME280;67429;51.596;-3.264;2023-04-23T08:11:33;97954.69;;;12.27;46.11
78064;BME280;67429;51.596;-3.264;2023-04-23T08:13:58;97957.76;;;13.15;45.20
78064;BME280;67429;51.596;-3.264;2023-04-23T08:16:23;97953.01;;;13.48;45.05
78064;BME280;67429;51.596;-3.264;2023-04-23T08:18:48;97953.12;;;11.47;46.61
78064;BME280;67429;51.596;-3.264;2023-04-23T08:21:13;97956.82;;;11.54;47.58
78064;BME280;67429;51.596;-3.264;2023-04-23T08:23:38;97951.25;;;12.00;46.94
78064;BME280;67429;51.596;-3.264;2023-04-23T08:26:04;97954.09;;;11.84;47.62
78064;BME280;67429;51.596;-3.264;2023-04-23T08:28:29;97952.15;;;11.56;46.89
78064;BME280;67429;51.596;-3.264;2023-04-23T08:30:54;97955.30;;;11.53;47.33
78064;BME280;67429;51.596;-3.264;2023-04-23T08:33:20;97954.94;;;11.16;48.05
78064;BME280;67429;51.596;-3.264;2023-04-23T08:35:46;97953.30;;;12.02;46.01
78064;BME280;67429;51.596;-3.264;2023-04-23T08:38:11;97954.00;;;11.83;46.03
78064;BME280;67429;51.596;-3.264;2023-04-23T08:40:36;97953.20;;;11.23;45.95
78064;BME280;67429;51.596;-3.264;2023-04-23T08:43:09;97952.22;;;10.87;45.92
78064;BME280;67429;51.596;-3.264;2023-04-23T08:45:27;97954.18;;;10.82;45.71
78064;BME280;67429;51.596;-3.264;2023-04-23T08:47:52;97951.66;;;11.90;44.12
78064;BME280;67429;51.596;-3.264;2023-04-23T08:50:18;97957.44;;;11.71;43.81
78064;BME280;67429;51.596;-3.264;2023-04-23T08:52:46;97959.32;;;11.95;44.55
78064;BME280;67429;51.596;-3.264;2023-04-23T08:55:09;97965.72;;;11.09;46.08
78064;BME280;67429;51.596;-3.264;2023-04-23T08:57:33;97962.04;;;11.86;44.78
78064;BME280;67429;51.596;-3.264;2023-04-23T08:59:59;97955.58;;;12.19;43.47
78064;BME280;67429;51.596;-3.264;2023-04-23T09:02:24;97954.43;;;12.56;42.99
78064;BME280;67429;51.596;-3.264;2023-04-23T09:04:51;97954.67;;;12.62;43.35
78064;BME280;67429;51.596;-3.264;2023-04-23T09:07:15;97954.97;;;13.23;41.92
78064;BME280;67429;51.596;-3.264;2023-04-23T09:09:41;97948.33;;;13.69;41.65
78064;BME280;67429;51.596;-3.264;2023-04-23T09:12:07;97958.44;;;13.19;39.88
78064;BME280;67429;51.596;-3.264;2023-04-23T09:14:32;97955.75;;;13.36;40.13
78064;BME280;67429;51.596;-3.264;2023-04-23T09:16:57;97956.12;;;12.80;39.83
78064;BME280;67429;51.596;-3.264;2023-04-23T09:19:25;97955.46;;;12.87;39.09
78064;BME280;67429;51.596;-3.264;2023-04-23T09:21:48;97954.27;;;12.98;39.95
78064;BME280;67429;51.596;-3.264;2023-04-23T09:24:13;97951.06;;;13.53;39.71
78064;BME280;67429;51.596;-3.264;2023-04-23T09:26:43;97952.30;;;13.96;37.38
78064;BME280;67429;51.596;-3.264;2023-04-23T09:29:12;97950.33;;;13.96;35.14
78064;BME280;67429;51.596;-3.264;2023-04-23T09:31:30;97951.27;;;15.13;35.53
78064;BME280;67429;51.596;-3.264;2023-04-23T09:33:57;97952.77;;;15.63;33.97
78064;BME280;67429;51.596;-3.264;2023-04-23T09:36:21;97952.47;;;15.23;33.36
78064;BME280;67429;51.596;-3.264;2023-04-23T09:38:47;97951.04;;;14.52;35.10
78064;BME280;67429;51.596;-3.264;2023-04-23T09:41:22;97954.06;;;15.54;34.28
78064;BME280;67429;51.596;-3.264;2023-04-23T09:43:40;97957.58;;;15.82;36.35
78064;BME280;67429;51.596;-3.264;2023-04-23T09:46:03;97954.11;;;15.89;36.13
78064;BME280;67429;51.596;-3.264;2023-04-23T09:50:54;97951.10;;;16.34;33.00
78064;BME280;67429;51.596;-3.264;2023-04-23T09:53:20;97952.33;;;16.00;33.20
78064;BME280;67429;51.596;-3.264;2023-04-23T09:55:45;97953.73;;;14.98;34.50
78064;BME280;67429;51.596;-3.264;2023-04-23T09:58:13;97954.57;;;14.61;36.49
78064;BME280;67429;51.596;-3.264;2023-04-23T10:00:38;97953.49;;;14.03;36.77
78064;BME280;67429;51.596;-3.264;2023-04-23T10:03:04;97954.05;;;13.52;37.71
78064;BME280;67429;51.596;-3.264;2023-04-23T10:05:28;97956.34;;;12.63;38.92
78064;BME280;67429;51.596;-3.264;2023-04-23T10:07:54;97959.10;;;11.89;39.95
78064;BME280;67429;51.596;-3.264;2023-04-23T10:10:19;97952.63;;;12.96;37.89
78064;BME280;67429;51.596;-3.264;2023-04-23T10:12:45;97954.97;;;14.25;36.44
78064;BME280;67429;51.596;-3.264;2023-04-23T10:15:11;97954.55;;;13.10;34.61
78064;BME280;67429;51.596;-3.264;2023-04-23T10:17:36;97951.43;;;12.74;35.69
78064;BME280;67429;51.596;-3.264;2023-04-23T10:20:02;97958.29;;;12.21;36.63
78064;BME280;67429;51.596;-3.264;2023-04-23T10:22:28;97952.14;;;12.57;35.32
78064;BME280;67429;51.596;-3.264;2023-04-23T10:24:55;97952.98;;;12.87;36.30
78064;BME280;67429;51.596;-3.264;2023-04-23T10:27:21;97953.09;;;12.71;35.46
78064;BME280;67429;51.596;-3.264;2023-04-23T10:29:45;97955.25;;;13.03;36.59
78064;BME280;67429;51.596;-3.264;2023-04-23T10:32:10;97958.06;;;13.10;37.76
78064;BME280;67429;51.596;-3.264;2023-04-23T10:34:35;97957.23;;;12.91;39.12
78064;BME280;67429;51.596;-3.264;2023-04-23T10:37:01;97959.05;;;12.31;38.43
78064;BME280;67429;51.596;-3.264;2023-04-23T10:39:29;97959.05;;;12.43;38.20
78064;BME280;67429;51.596;-3.264;2023-04-23T10:41:53;97962.78;;;12.11;39.89
78064;BME280;67429;51.596;-3.264;2023-04-23T10:44:19;97963.98;;;12.47;39.61
78064;BME280;67429;51.596;-3.264;2023-04-23T10:46:51;97965.71;;;12.33;40.13
78064;BME280;67429;51.596;-3.264;2023-04-23T10:49:11;97968.94;;;12.93;39.17
78064;BME280;67429;51.596;-3.264;2023-04-23T10:51:34;97967.90;;;12.47;38.79
78064;BME280;67429;51.596;-3.264;2023-04-23T10:54:00;97966.58;;;12.87;38.34
78064;BME280;67429;51.596;-3.264;2023-04-23T10:56:26;97965.54;;;12.71;38.33
78064;BME280;67429;51.596;-3.264;2023-04-23T10:58:50;97964.25;;;13.27;38.05
78064;BME280;67429;51.596;-3.264;2023-04-23T11:01:16;97965.64;;;13.49;38.05
78064;BME280;67429;51.596;-3.264;2023-04-23T11:03:41;97962.23;;;14.34;37.13
78064;BME280;67429;51.596;-3.264;2023-04-23T11:06:07;97962.93;;;13.87;37.11
78064;BME280;67429;51.596;-3.264;2023-04-23T11:08:34;97963.09;;;15.33;34.71
78064;BME280;67429;51.596;-3.264;2023-04-23T11:10:59;97965.38;;;15.76;34.62
78064;BME280;67429;51.596;-3.264;2023-04-23T11:13:24;97963.63;;;15.35;34.99
78064;BME280;67429;51.596;-3.264;2023-04-23T11:18:14;97963.66;;;13.37;36.94
78064;BME280;67429;51.596;-3.264;2023-04-23T11:20:40;97966.36;;;14.10;36.30
78064;BME280;67429;51.596;-3.264;2023-04-23T11:23:06;97967.01;;;12.93;37.49
78064;BME280;67429;51.596;-3.264;2023-04-23T11:25:31;97974.54;;;11.79;40.19
78064;BME280;67429;51.596;-3.264;2023-04-23T11:27:57;97975.40;;;11.97;39.60
78064;BME280;67429;51.596;-3.264;2023-04-23T11:30:24;97973.76;;;11.89;39.37
78064;BME280;67429;51.596;-3.264;2023-04-23T11:32:49;97972.35;;;12.21;39.51
78064;BME280;67429;51.596;-3.264;2023-04-23T11:35:14;97971.51;;;11.23;40.23
78064;BME280;67429;51.596;-3.264;2023-04-23T11:37:40;97971.99;;;12.06;38.12
78064;BME280;67429;51.596;-3.264;2023-04-23T11:40:06;97971.62;;;12.76;37.62
78064;BME280;67429;51.596;-3.264;2023-04-23T11:42:31;97973.73;;;12.63;36.76
78064;BME280;67429;51.596;-3.264;2023-04-23T11:44:56;97975.88;;;13.43;36.20
78064;BME280;67429;51.596;-3.264;2023-04-23T11:47:25;97974.80;;;12.66;36.28
78064;BME280;67429;51.596;-3.264;2023-04-23T11:49:47;97976.91;;;13.01;36.24
78064;BME280;67429;51.596;-3.264;2023-04-23T11:52:13;97982.41;;;14.22;35.36
78064;BME280;67429;51.596;-3.264;2023-04-23T11:54:40;97982.38;;;15.24;34.85
78064;BME280;67429;51.596;-3.264;2023-04-23T11:57:04;97985.36;;;13.23;40.37
78064;BME280;67429;51.596;-3.264;2023-04-23T11:59:30;97981.52;;;12.72;42.30
78064;BME280;67429;51.596;-3.264;2023-04-23T12:01:56;97989.02;;;11.45;44.72
78064;BME280;67429;51.596;-3.264;2023-04-23T12:04:23;97982.98;;;11.26;44.72
78064;BME280;67429;51.596;-3.264;2023-04-23T12:06:47;97985.66;;;11.87;43.88
78064;BME280;67429;51.596;-3.264;2023-04-23T12:09:12;97986.74;;;11.84;44.07
78064;BME280;67429;51.596;-3.264;2023-04-23T12:11:37;97993.09;;;12.51;42.50
78064;BME280;67429;51.596;-3.264;2023-04-23T12:14:02;97994.55;;;12.22;42.84
78064;BME280;67429;51.596;-3.264;2023-04-23T12:16:36;97995.95;;;12.84;40.58
78064;BME280;67429;51.596;-3.264;2023-04-23T12:18:53;97995.84;;;13.34;38.26
78064;BME280;67429;51.596;-3.264;2023-04-23T12:21:19;97997.39;;;13.76;35.30
78064;BME280;67429;51.596;-3.264;2023-04-23T12:23:44;97994.42;;;14.22;34.28
78064;BME280;67429;51.596;-3.264;2023-04-23T12:26:11;97997.12;;;14.08;32.75
78064;BME280;67429;51.596;-3.264;2023-04-23T12:28:44;97997.67;;;12.90;35.77
78064;BME280;67429;51.596;-3.264;2023-04-23T12:31:01;98001.14;;;12.26;37.97
78064;BME280;67429;51.596;-3.264;2023-04-23T12:33:28;98002.01;;;11.35;36.99
78064;BME280;67429;51.596;-3.264;2023-04-23T12:35:52;98004.99;;;12.12;37.23
78064;BME280;67429;51.596;-3.264;2023-04-23T12:38:21;97999.49;;;10.65;39.26
78064;BME280;67429;51.596;-3.264;2023-04-23T12:40:43;98001.98;;;10.48;41.10
78064;BME280;67429;51.596;-3.264;2023-04-23T12:43:08;97998.77;;;11.54;38.42
78064;BME280;67429;51.596;-3.264;2023-04-23T12:45:37;97994.23;;;11.67;37.28
78064;BME280;67429;51.596;-3.264;2023-04-23T12:48:00;97998.49;;;10.88;36.94
78064;BME280;67429;51.596;-3.264;2023-04-23T12:50:25;97999.52;;;11.27;39.35
78064;BME280;67429;51.596;-3.264;2023-04-23T12:52:51;98000.46;;;11.58;34.94